Time;durP1;ratioP1;P1;durP2;ratioP2;P2;SDS_P1;SDS_P2;PMS_P1;PMS_P2;Temp;Humidity;BMP_temperature;BMP_pressure;BME280_temperature;BME280_humidity;BME280_pressure;Samples;Min_cycle;Max_cycle;Signal;HPM_P1;HPM_P2
2021/09/16 00:01:46;;;;;;;15.77;9.13;;;;;;;;;;5014563;28;20024;-64
2021/09/16 00:04:12;;;;;;;15.63;9.18;;;;;;;;;;5014521;28;20094;-63
2021/09/16 00:06:38;;;;;;;16.10;9.40;;;;;;;;;;5014768;28;20499;-64
2021/09/16 00:09:04;;;;;;;14.52;9.10;;;;;;;;;;5032031;28;20053;-64
2021/09/16 00:11:30;;;;;;;15.77;8.90;;;;;;;;;;5032192;28;20025;-64
2021/09/16 00:13:56;;;;;;;18.98;9.00;;;;;;;;;;5032124;28;20076;-64
2021/09/16 00:16:23;;;;;;;16.30;8.70;;;;;;;;;;5014606;28;20021;-64
2021/09/16 00:18:49;;;;;;;14.45;8.85;;;;;;;;;;5014309;28;20378;-64
2021/09/16 00:21:15;;;;;;;14.95;9.05;;;;;;;;;;5014330;28;20021;-64
2021/09/16 00:23:41;;;;;;;15.30;9.38;;;;;;;;;;5031674;28;20033;-64
2021/09/16 00:26:07;;;;;;;15.70;8.77;;;;;;;;;;5032020;28;20036;-64
2021/09/16 00:28:33;;;;;;;16.55;9.00;;;;;;;;;;5014157;28;20025;-64
2021/09/16 00:30:59;;;;;;;14.77;9.23;;;;;;;;;;5014324;28;20092;-64
2021/09/16 00:33:25;;;;;;;15.48;9.30;;;;;;;;;;5031857;28;20030;-64
2021/09/16 00:35:51;;;;;;;15.45;9.05;;;;;;;;;;5014378;28;20120;-64
2021/09/16 00:38:17;;;;;;;15.18;8.95;;;;;;;;;;5014004;28;20026;-64
2021/09/16 00:40:43;;;;;;;15.75;8.85;;;;;;;;;;5014157;28;20608;-64
2021/09/16 00:43:09;;;;;;;15.35;9.07;;;;;;;;;;5014603;28;20018;-64
2021/09/16 00:45:35;;;;;;;15.13;8.82;;;;;;;;;;5031943;28;20033;-64
2021/09/16 00:48:01;;;;;;;14.90;9.07;;;;;;;;;;5031909;28;20026;-64
2021/09/16 00:50:27;;;;;;;15.60;9.20;;;;;;;;;;5031560;28;20100;-64
2021/09/16 00:52:53;;;;;;;16.33;9.18;;;;;;;;;;5014210;28;20029;-64
2021/09/16 00:55:20;;;;;;;15.40;9.00;;;;;;;;;;5032304;28;20030;-64
2021/09/16 00:57:49;;;;;;;14.75;9.10;;;;;;;;;;5035788;28;20101;-64
2021/09/16 01:00:15;;;;;;;17.40;9.20;;;;;;;;;;5035523;28;20026;-64
2021/09/16 01:02:41;;;;;;;17.88;10.00;;;;;;;;;;5035650;28;20120;-64
2021/09/16 01:05:08;;;;;;;16.75;9.30;;;;;;;;;;5035279;28;20434;-64
2021/09/16 01:07:36;;;;;;;17.17;9.88;;;;;;;;;;5017828;28;20025;-64
2021/09/16 01:10:03;;;;;;;15.27;9.50;;;;;;;;;;5034936;28;20025;-64
2021/09/16 01:12:29;;;;;;;14.88;9.27;;;;;;;;;;5035378;28;20037;-64
2021/09/16 01:14:55;;;;;;;17.45;9.10;;;;;;;;;;5035068;28;20034;-63
2021/09/16 01:17:21;;;;;;;16.15;9.05;;;;;;;;;;5017479;28;20045;-63
2021/09/16 01:19:47;;;;;;;15.55;8.70;;;;;;;;;;5017169;28;20022;-64
2021/09/16 01:22:19;;;;;;;14.35;8.82;;;;;;;;;;5035110;28;20363;-64
2021/09/16 01:24:45;;;;;;;15.55;9.05;;;;;;;;;;5034939;28;20033;-64
2021/09/16 01:27:11;;;;;;;16.25;9.35;;;;;;;;;;5035112;28;20032;-64
2021/09/16 01:29:37;;;;;;;15.00;9.10;;;;;;;;;;5017007;28;20049;-64
2021/09/16 01:32:04;;;;;;;17.75;9.32;;;;;;;;;;5034869;28;20072;-64
2021/09/16 01:34:31;;;;;;;17.75;9.48;;;;;;;;;;5017058;28;20025;-64
2021/09/16 01:36:57;;;;;;;15.60;9.10;;;;;;;;;;5034970;28;20025;-64
2021/09/16 01:39:24;;;;;;;15.35;9.10;;;;;;;;;;5016868;28;20109;-64
2021/09/16 01:41:50;;;;;;;17.23;9.60;;;;;;;;;;5035076;28;20029;-63
2021/09/16 01:44:16;;;;;;;19.30;10.32;;;;;;;;;;5034641;28;20045;-64
2021/09/16 01:46:43;;;;;;;17.10;9.35;;;;;;;;;;5034705;28;20024;-64
2021/09/16 01:49:09;;;;;;;18.15;10.57;;;;;;;;;;5034435;28;20018;-64
2021/09/16 01:51:35;;;;;;;17.98;9.77;;;;;;;;;;5034556;28;20049;-64
2021/09/16 01:54:03;;;;;;;15.57;9.50;;;;;;;;;;5034344;28;20461;-64
2021/09/16 01:56:29;;;;;;;20.92;9.48;;;;;;;;;;5012313;28;20033;-64
2021/09/16 01:58:55;;;;;;;18.30;9.55;;;;;;;;;;5016556;28;20485;-64
2021/09/16 02:01:21;;;;;;;15.18;9.35;;;;;;;;;;5016680;28;20099;-64
2021/09/16 02:03:47;;;;;;;15.30;9.80;;;;;;;;;;5016731;28;20033;-64
2021/09/16 02:06:13;;;;;;;15.43;9.80;;;;;;;;;;5016479;28;20053;-64
2021/09/16 02:08:39;;;;;;;16.38;9.93;;;;;;;;;;5015540;28;20026;-64
2021/09/16 02:11:05;;;;;;;16.23;9.63;;;;;;;;;;5034190;28;20108;-64
2021/09/16 02:13:32;;;;;;;14.70;9.60;;;;;;;;;;5016497;28;20469;-64
2021/09/16 02:15:57;;;;;;;16.67;9.82;;;;;;;;;;5016438;28;20124;-64
2021/09/16 02:18:23;;;;;;;16.25;9.57;;;;;;;;;;5016294;28;20108;-64
2021/09/16 02:20:49;;;;;;;16.77;9.77;;;;;;;;;;5016216;28;20029;-64
2021/09/16 02:23:15;;;;;;;14.90;9.35;;;;;;;;;;5016510;28;20378;-64
2021/09/16 02:25:41;;;;;;;16.75;9.50;;;;;;;;;;5033557;28;20036;-64
2021/09/16 02:28:07;;;;;;;15.85;9.50;;;;;;;;;;5033737;28;20551;-64
2021/09/16 02:30:33;;;;;;;18.38;9.50;;;;;;;;;;5016080;28;20040;-64
2021/09/16 02:33:04;;;;;;;15.82;9.82;;;;;;;;;;5033686;28;20097;-64
2021/09/16 02:35:30;;;;;;;20.38;9.80;;;;;;;;;;5015703;28;20033;-64
2021/09/16 02:37:56;;;;;;;16.85;9.43;;;;;;;;;;5033705;28;20039;-64
2021/09/16 02:40:22;;;;;;;18.08;9.95;;;;;;;;;;5033499;28;20026;-63
2021/09/16 02:42:48;;;;;;;17.67;10.55;;;;;;;;;;5015791;28;20485;-64
2021/09/16 02:45:14;;;;;;;16.40;10.70;;;;;;;;;;5015835;28;20079;-64
2021/09/16 02:47:40;;;;;;;15.25;10.20;;;;;;;;;;5015962;28;20425;-65
2021/09/16 02:50:06;;;;;;;15.82;10.48;;;;;;;;;;5033177;28;20045;-64
2021/09/16 02:52:32;;;;;;;15.88;10.07;;;;;;;;;;5033452;28;20060;-64
2021/09/16 02:54:58;;;;;;;16.70;10.38;;;;;;;;;;5033439;28;20680;-64
2021/09/16 02:57:24;;;;;;;16.23;10.40;;;;;;;;;;5015894;28;20030;-66
2021/09/16 02:59:50;;;;;;;16.33;10.07;;;;;;;;;;5032958;28;20108;-65
2021/09/16 03:02:16;;;;;;;17.33;10.55;;;;;;;;;;5015691;28;20021;-64
2021/09/16 03:04:41;;;;;;;17.63;10.18;;;;;;;;;;5032908;28;20104;-64
2021/09/16 03:07:07;;;;;;;19.73;11.55;;;;;;;;;;5015508;28;20440;-64
2021/09/16 03:09:33;;;;;;;18.48;10.40;;;;;;;;;;5032790;28;20021;-64
2021/09/16 03:11:59;;;;;;;18.65;10.00;;;;;;;;;;5033120;28;20462;-64
2021/09/16 03:14:25;;;;;;;18.52;10.40;;;;;;;;;;5015245;28;20028;-64
2021/09/16 03:16:51;;;;;;;17.15;10.65;;;;;;;;;;5032889;28;20029;-64
2021/09/16 03:19:17;;;;;;;19.13;10.85;;;;;;;;;;5015698;28;20076;-64
2021/09/16 03:21:43;;;;;;;18.63;10.55;;;;;;;;;;5015959;28;20078;-64
2021/09/16 03:24:09;;;;;;;18.05;11.27;;;;;;;;;;5032817;28;20037;-64
2021/09/16 03:26:35;;;;;;;19.10;10.60;;;;;;;;;;5033162;28;20101;-64
2021/09/16 03:29:01;;;;;;;18.08;10.80;;;;;;;;;;5015155;28;20424;-64
2021/09/16 03:31:27;;;;;;;18.13;10.23;;;;;;;;;;5015462;28;20120;-64
2021/09/16 03:33:53;;;;;;;18.42;10.73;;;;;;;;;;5015071;28;20033;-65
2021/09/16 03:36:19;;;;;;;19.77;11.07;;;;;;;;;;5032640;28;20101;-65
2021/09/16 03:38:45;;;;;;;16.60;10.93;;;;;;;;;;5032615;28;20022;-65
2021/09/16 03:41:11;;;;;;;17.35;11.18;;;;;;;;;;5014589;28;20112;-65
2021/09/16 03:43:37;;;;;;;19.83;10.73;;;;;;;;;;5014780;28;20014;-65
2021/09/16 03:46:03;;;;;;;20.23;11.10;;;;;;;;;;5014584;28;20076;-64
2021/09/16 03:48:29;;;;;;;19.60;11.73;;;;;;;;;;5032164;28;20022;-64
2021/09/16 03:50:55;;;;;;;18.60;11.20;;;;;;;;;;5014729;28;20048;-64
2021/09/16 03:53:21;;;;;;;17.95;10.82;;;;;;;;;;5032437;28;20025;-65
2021/09/16 03:55:47;;;;;;;17.25;10.93;;;;;;;;;;5032262;28;20535;-65
2021/09/16 03:58:13;;;;;;;19.38;10.98;;;;;;;;;;5032257;28;20030;-64
2021/09/16 04:00:39;;;;;;;17.83;11.27;;;;;;;;;;5014613;28;20084;-64
2021/09/16 04:03:08;;;;;;;17.98;12.02;;;;;;;;;;5014643;28;20029;-65
2021/09/16 04:05:34;;;;;;;;;;;;;;;;;;5032442;28;20032;-66
2021/09/16 04:08:00;;;;;;;17.17;10.50;;;;;;;;;;5032206;28;20007;-64
2021/09/16 04:10:26;;;;;;;18.95;11.73;;;;;;;;;;5014358;28;20025;-64
2021/09/16 04:12:52;;;;;;;18.30;11.20;;;;;;;;;;5032145;28;20013;-65
2021/09/16 04:15:18;;;;;;;17.98;11.20;;;;;;;;;;5032114;28;20029;-65
2021/09/16 04:17:44;;;;;;;18.60;10.90;;;;;;;;;;5014493;28;20411;-64
2021/09/16 04:20:10;;;;;;;16.92;10.43;;;;;;;;;;5014302;28;20044;-65
2021/09/16 04:22:36;;;;;;;19.15;11.30;;;;;;;;;;5014664;28;20033;-64
2021/09/16 04:25:02;;;;;;;19.30;11.10;;;;;;;;;;5014134;28;20025;-65
2021/09/16 04:27:28;;;;;;;17.25;11.45;;;;;;;;;;5029865;28;20030;-65
2021/09/16 04:29:54;;;;;;;17.23;11.52;;;;;;;;;;5016422;28;20014;-64
2021/09/16 04:32:20;;;;;;;18.67;11.80;;;;;;;;;;5034832;28;20075;-64
2021/09/16 04:34:47;;;;;;;17.45;11.77;;;;;;;;;;5035944;28;20108;-65
2021/09/16 04:37:13;;;;;;;17.83;10.82;;;;;;;;;;5018418;28;20473;-64
2021/09/16 04:39:39;;;;;;;19.27;11.35;;;;;;;;;;5018417;28;20071;-64
2021/09/16 04:42:06;;;;;;;17.80;11.15;;;;;;;;;;5017877;28;20052;-65
2021/09/16 04:44:32;;;;;;;19.90;12.23;;;;;;;;;;5035112;28;20018;-64
2021/09/16 04:46:58;;;;;;;18.77;11.80;;;;;;;;;;5035698;28;20152;-65
2021/09/16 04:49:24;;;;;;;18.70;11.70;;;;;;;;;;5034213;28;20033;-64
2021/09/16 04:51:51;;;;;;;18.65;11.55;;;;;;;;;;5034330;28;20033;-65
2021/09/16 04:54:17;;;;;;;18.73;11.90;;;;;;;;;;5035594;28;20033;-64
2021/09/16 04:56:43;;;;;;;20.83;11.93;;;;;;;;;;5035516;28;20021;-64
2021/09/16 04:59:09;;;;;;;18.67;11.57;;;;;;;;;;5034976;28;20088;-64
2021/09/16 05:01:35;;;;;;;18.23;11.65;;;;;;;;;;5035190;28;20108;-65
2021/09/16 05:04:01;;;;;;;21.20;13.20;;;;;;;;;;5035121;28;20025;-65
2021/09/16 05:06:26;;;;;;;19.55;12.07;;;;;;;;;;5017121;28;20394;-65
2021/09/16 05:08:52;;;;;;;16.88;11.15;;;;;;;;;;5034911;28;20035;-65
2021/09/16 05:11:18;;;;;;;19.75;11.55;;;;;;;;;;5017118;28;20120;-65
2021/09/16 05:13:44;;;;;;;20.65;11.80;;;;;;;;;;5034935;28;20071;-65
2021/09/16 05:16:10;;;;;;;19.83;13.15;;;;;;;;;;5016962;28;20472;-65
2021/09/16 05:18:36;;;;;;;19.85;12.43;;;;;;;;;;5034769;28;20091;-65
2021/09/16 05:21:02;;;;;;;21.83;12.68;;;;;;;;;;5017225;28;20473;-65
2021/09/16 05:23:28;;;;;;;20.75;12.30;;;;;;;;;;5034592;28;20029;-63
2021/09/16 05:25:54;;;;;;;17.70;11.98;;;;;;;;;;5023355;22;20046;-63
2021/09/16 05:28:20;;;;;;;19.42;12.32;;;;;;;;;;5012482;28;20034;-62
2021/09/16 05:30:46;;;;;;;20.95;11.43;;;;;;;;;;4995700;28;20018;-62
2021/09/16 05:33:13;;;;;;;19.98;11.32;;;;;;;;;;4996024;28;20026;-62
2021/09/16 05:35:39;;;;;;;20.00;11.85;;;;;;;;;;5013369;28;20058;-62
2021/09/16 05:38:06;;;;;;;19.63;11.50;;;;;;;;;;5013451;28;20033;-62
2021/09/16 05:40:32;;;;;;;20.67;11.50;;;;;;;;;;4995657;28;20022;-62
2021/09/16 05:43:04;;;;;;;19.63;11.48;;;;;;;;;;4995543;28;20037;-70
2021/09/16 05:45:31;;;;;;;20.17;12.25;;;;;;;;;;4996388;28;20096;-61
2021/09/16 05:47:57;;;;;;;19.92;11.50;;;;;;;;;;4995496;28;20468;-63
2021/09/16 05:50:22;;;;;;;19.35;11.90;;;;;;;;;;5012879;28;20105;-61
2021/09/16 05:52:49;;;;;;;20.88;12.27;;;;;;;;;;5013176;28;20373;-61
2021/09/16 05:55:15;;;;;;;22.73;12.13;;;;;;;;;;5013400;28;20042;-61
2021/09/16 05:57:41;;;;;;;21.30;12.10;;;;;;;;;;5013278;28;20053;-62
2021/09/16 06:00:07;;;;;;;21.35;11.90;;;;;;;;;;5012366;28;20053;-62
2021/09/16 06:02:34;;;;;;;22.40;12.13;;;;;;;;;;5012600;28;20473;-62
2021/09/16 06:04:59;;;;;;;20.42;12.18;;;;;;;;;;5011408;28;20120;-61
2021/09/16 06:07:25;;;;;;;18.77;11.18;;;;;;;;;;5012754;28;20061;-61
2021/09/16 06:09:51;;;;;;;17.92;10.93;;;;;;;;;;5011364;28;20030;-62
2021/09/16 06:12:17;;;;;;;19.92;11.52;;;;;;;;;;5011134;28;20658;-61
2021/09/16 06:14:44;;;;;;;20.63;11.60;;;;;;;;;;5012496;28;20074;-61
2021/09/16 06:17:10;;;;;;;18.70;11.65;;;;;;;;;;5011609;28;20325;-61
2021/09/16 06:19:36;;;;;;;23.65;12.32;;;;;;;;;;5012239;28;20097;-62
2021/09/16 06:22:02;;;;;;;19.05;12.25;;;;;;;;;;5011038;28;20099;-61
2021/09/16 06:24:28;;;;;;;31.35;13.40;;;;;;;;;;5010813;28;20038;-60
2021/09/16 06:26:54;;;;;;;21.33;11.82;;;;;;;;;;5012401;28;20104;-62
2021/09/16 06:29:21;;;;;;;24.75;12.82;;;;;;;;;;4997111;28;20026;-62
2021/09/16 06:31:47;;;;;;;22.70;12.45;;;;;;;;;;4992736;28;20019;-61
2021/09/16 06:34:13;;;;;;;19.67;11.55;;;;;;;;;;4992610;28;20026;-61
2021/09/16 06:36:38;;;;;;;19.67;11.95;;;;;;;;;;4992406;28;20397;-62
2021/09/16 06:39:04;;;;;;;22.35;13.30;;;;;;;;;;4974836;28;20026;-62
2021/09/16 06:41:31;;;;;;;25.55;12.63;;;;;;;;;;4992723;28;20065;-61
2021/09/16 06:43:57;;;;;;;21.08;11.88;;;;;;;;;;4992398;28;20081;-63
2021/09/16 06:46:23;;;;;;;19.65;12.88;;;;;;;;;;4974296;28;20096;-62
2021/09/16 06:48:49;;;;;;;22.65;12.73;;;;;;;;;;4991960;28;20022;-62
2021/09/16 06:51:15;;;;;;;22.80;13.65;;;;;;;;;;4974710;28;20030;-62
2021/09/16 06:53:41;;;;;;;22.48;14.25;;;;;;;;;;4991301;28;20375;-61
2021/09/16 06:56:07;;;;;;;22.63;14.05;;;;;;;;;;4991785;28;20105;-62
2021/09/16 06:58:33;;;;;;;23.08;13.95;;;;;;;;;;4992126;28;20030;-62
2021/09/16 07:00:58;;;;;;;22.17;15.85;;;;;;;;;;4992568;28;20536;-62
2021/09/16 07:03:24;;;;;;;23.83;16.80;;;;;;;;;;4992250;28;20041;-61
2021/09/16 07:05:50;;;;;;;22.15;16.17;;;;;;;;;;4992199;28;20098;-61
2021/09/16 07:08:16;;;;;;;25.60;16.10;;;;;;;;;;4991879;28;20454;-62
2021/09/16 07:10:42;;;;;;;26.27;17.08;;;;;;;;;;4974959;28;20028;-62
2021/09/16 07:13:08;;;;;;;23.65;17.58;;;;;;;;;;4992393;28;20410;-62
2021/09/16 07:15:34;;;;;;;23.00;16.75;;;;;;;;;;4992213;28;20466;-62
2021/09/16 07:18:01;;;;;;;26.95;18.92;;;;;;;;;;4992276;28;20027;-63
2021/09/16 07:20:27;;;;;;;26.48;19.98;;;;;;;;;;4991770;28;20034;-61
2021/09/16 07:22:53;;;;;;;24.98;19.33;;;;;;;;;;4992193;28;20034;-61
2021/09/16 07:25:19;;;;;;;27.88;20.92;;;;;;;;;;4974342;28;20080;-61
2021/09/16 07:27:47;;;;;;;26.33;21.00;;;;;;;;;;4991787;28;20033;-62
2021/09/16 07:30:13;;;;;;;29.25;21.40;;;;;;;;;;4991912;28;20509;-62
2021/09/16 07:32:39;;;;;;;23.05;18.17;;;;;;;;;;4991691;28;20041;-65
2021/09/16 07:35:05;;;;;;;26.80;22.42;;;;;;;;;;4974776;28;20030;-64
2021/09/16 07:37:31;;;;;;;25.70;21.55;;;;;;;;;;4991952;28;20118;-65
2021/09/16 07:39:57;;;;;;;28.33;24.00;;;;;;;;;;4991718;28;20491;-64
2021/09/16 07:42:24;;;;;;;26.25;21.50;;;;;;;;;;4974268;28;20034;-65
2021/09/16 07:44:50;;;;;;;26.83;21.33;;;;;;;;;;4991760;28;20038;-65
2021/09/16 07:47:16;;;;;;;24.05;19.35;;;;;;;;;;4991707;28;20122;-65
2021/09/16 07:49:44;;;;;;;30.38;20.15;;;;;;;;;;4991749;28;20032;-64
2021/09/16 07:52:10;;;;;;;28.65;19.42;;;;;;;;;;4991640;28;20486;-65
2021/09/16 07:54:36;;;;;;;25.98;18.83;;;;;;;;;;4974802;28;20038;-65
2021/09/16 07:57:02;;;;;;;24.02;18.83;;;;;;;;;;4974416;28;20027;-65
2021/09/16 07:59:28;;;;;;;23.85;19.67;;;;;;;;;;5002595;28;20504;-64
2021/09/16 08:01:54;;;;;;;25.30;18.45;;;;;;;;;;5011108;28;20029;-65
2021/09/16 08:04:20;;;;;;;23.83;17.30;;;;;;;;;;5010764;28;20033;-65
2021/09/16 08:06:46;;;;;;;22.63;17.55;;;;;;;;;;5009308;28;20022;-65
2021/09/16 08:09:12;;;;;;;24.98;18.52;;;;;;;;;;5009758;28;20033;-65
2021/09/16 08:11:39;;;;;;;22.92;17.98;;;;;;;;;;5010042;28;20068;-65
2021/09/16 08:14:05;;;;;;;25.83;18.45;;;;;;;;;;5011006;28;20026;-65
2021/09/16 08:16:31;;;;;;;25.88;17.15;;;;;;;;;;5010240;28;20121;-65
2021/09/16 08:18:57;;;;;;;23.50;16.77;;;;;;;;;;5009692;28;20053;-65
2021/09/16 08:21:24;;;;;;;24.02;17.35;;;;;;;;;;5011270;28;20022;-65
2021/09/16 08:23:51;;;;;;;21.48;17.63;;;;;;;;;;5010980;28;20060;-65
2021/09/16 08:26:17;;;;;;;21.88;15.27;;;;;;;;;;5010962;28;20045;-65
2021/09/16 08:28:43;;;;;;;25.27;17.40;;;;;;;;;;5003050;28;20024;-65
2021/09/16 08:31:09;;;;;;;23.08;17.13;;;;;;;;;;5010020;28;20018;-64
2021/09/16 08:33:35;;;;;;;24.02;16.25;;;;;;;;;;5010542;28;20029;-65
2021/09/16 08:36:01;;;;;;;21.05;15.85;;;;;;;;;;5010856;28;20085;-63
2021/09/16 08:38:27;;;;;;;22.30;14.80;;;;;;;;;;5010945;28;20068;-65
2021/09/16 08:40:53;;;;;;;22.85;16.83;;;;;;;;;;5010833;28;20050;-65
2021/09/16 08:43:21;;;;;;;24.52;16.55;;;;;;;;;;5009457;28;20066;-65
2021/09/16 08:45:48;;;;;;;20.10;15.32;;;;;;;;;;5010637;28;20112;-68
2021/09/16 08:48:14;;;;;;;22.20;14.45;;;;;;;;;;5010663;28;20022;-70
2021/09/16 08:50:40;;;;;;;23.88;15.80;;;;;;;;;;5011026;28;20037;-71
2021/09/16 08:53:07;;;;;;;24.75;15.95;;;;;;;;;;4993349;28;20120;-71
2021/09/16 08:55:34;;;;;;;23.05;15.93;;;;;;;;;;4993392;28;20382;-71
2021/09/16 08:58:01;;;;;;;22.35;15.05;;;;;;;;;;5011103;28;20026;-69
2021/09/16 09:00:28;;;;;;;20.08;15.15;;;;;;;;;;5010619;28;20046;-70
2021/09/16 09:02:55;;;;;;;22.27;16.75;;;;;;;;;;5009814;28;20030;-70
2021/09/16 09:05:22;;;;;;;20.27;14.65;;;;;;;;;;5009598;28;20025;-70
2021/09/16 09:07:49;;;;;;;20.00;14.98;;;;;;;;;;5010640;28;20041;-71
2021/09/16 09:10:35;;;;;;;22.77;15.20;;;;;;;;;;5011398;28;20022;-69
2021/09/16 09:13:02;;;;;;;23.10;15.75;;;;;;;;;;5008565;28;20018;-68
2021/09/16 09:15:28;;;;;;;22.05;14.00;;;;;;;;;;5010803;28;20038;-69
2021/09/16 09:18:04;;;;;;;19.73;14.63;;;;;;;;;;5013355;28;20383;-68
2021/09/16 09:20:30;;;;;;;20.48;14.15;;;;;;;;;;5014044;28;20026;-69
2021/09/16 09:22:56;;;;;;;21.00;14.05;;;;;;;;;;5012957;28;20030;-69
2021/09/16 09:25:24;;;;;;;20.85;14.63;;;;;;;;;;5012182;28;20029;-69
2021/09/16 09:27:51;;;;;;;18.53;13.30;;;;;;;;;;5010278;28;20425;-68
2021/09/16 09:30:19;;;;;;;21.40;13.18;;;;;;;;;;4993866;28;20270;-69
2021/09/16 09:33:05;;;;;;;18.50;12.38;;;;;;;;;;4994222;28;20106;-68
2021/09/16 09:35:36;;;;;;;18.58;12.93;;;;;;;;;;4994365;28;20445;-69
2021/09/16 09:38:15;;;;;;;20.92;13.55;;;;;;;;;;4994320;28;20492;-70
2021/09/16 09:40:42;;;;;;;21.00;13.25;;;;;;;;;;4977354;28;20409;-69
2021/09/16 09:43:20;;;;;;;21.17;13.13;;;;;;;;;;4994332;28;20488;-69
2021/09/16 09:46:12;;;;;;;20.33;13.70;;;;;;;;;;4976886;28;20504;-63
2021/09/16 09:48:46;;;;;;;18.90;8.82;;;;;;;;;;4990705;28;20122;-64
2021/09/16 09:51:13;;;;;;;16.95;8.82;;;;;;;;;;4994207;28;20082;-63
2021/09/16 09:53:40;;;;;;;17.42;7.85;;;;;;;;;;4977002;28;20029;-63
2021/09/16 09:56:13;;;;;;;18.45;8.30;;;;;;;;;;4994375;28;20101;-65
2021/09/16 09:58:39;;;;;;;19.95;8.02;;;;;;;;;;4993799;28;20045;-65
2021/09/16 10:01:24;;;;;;;17.63;9.43;;;;;;;;;;4993963;28;20035;-64
2021/09/16 10:03:50;;;;;;;19.35;8.60;;;;;;;;;;4976314;28;20031;-66
2021/09/16 10:06:16;;;;;;;18.65;9.07;;;;;;;;;;4976072;28;20442;-63
2021/09/16 10:08:42;;;;;;;22.25;9.88;;;;;;;;;;4993426;28;20027;-64
2021/09/16 10:11:08;;;;;;;22.13;8.85;;;;;;;;;;4975540;28;20042;-63
2021/09/16 10:13:35;;;;;;;18.45;8.13;;;;;;;;;;4993231;28;20061;-63
2021/09/16 10:16:05;;;;;;;15.68;7.75;;;;;;;;;;4993284;28;20088;-64
2021/09/16 10:18:32;;;;;;;19.05;7.60;;;;;;;;;;4992956;28;20035;-64
2021/09/16 10:21:00;;;;;;;20.92;8.15;;;;;;;;;;4995805;28;20045;-65
2021/09/16 10:23:28;;;;;;;20.80;8.10;;;;;;;;;;4994171;28;20057;-64
2021/09/16 10:25:54;;;;;;;20.13;9.47;;;;;;;;;;4975206;28;20035;-64
2021/09/16 10:28:21;;;;;;;20.63;8.50;;;;;;;;;;4974390;28;20022;-64
2021/09/16 10:30:53;;;;;;;18.50;8.20;;;;;;;;;;4993081;28;20022;-64
2021/09/16 10:33:27;;;;;;;18.48;7.80;;;;;;;;;;4992968;28;20019;-64
2021/09/16 10:35:59;;;;;;;19.13;8.25;;;;;;;;;;4975345;28;20030;-63
2021/09/16 10:38:36;;;;;;;18.83;7.32;;;;;;;;;;4992652;28;20042;-62
2021/09/16 10:41:19;;;;;;;17.33;7.97;;;;;;;;;;4992698;28;20030;-63
2021/09/16 10:43:50;;;;;;;20.58;8.48;;;;;;;;;;4975067;28;20089;-63
2021/09/16 10:46:22;;;;;;;20.65;8.70;;;;;;;;;;4992545;28;20058;-62
2021/09/16 10:48:48;;;;;;;15.88;8.18;;;;;;;;;;4992441;28;20026;-63
2021/09/16 10:51:13;;;;;;;19.73;8.65;;;;;;;;;;4992617;28;20028;-63
2021/09/16 10:53:44;;;;;;;19.38;8.13;;;;;;;;;;4975457;28;20377;-63
2021/09/16 10:56:29;;;;;;;17.77;8.02;;;;;;;;;;4974844;28;20081;-63
2021/09/16 10:58:55;;;;;;;16.80;7.45;;;;;;;;;;4974595;28;20355;-61
2021/09/16 11:01:40;;;;;;;23.92;8.57;;;;;;;;;;4992425;28;20026;-64
2021/09/16 11:04:07;;;;;;;21.13;7.80;;;;;;;;;;4974941;28;20026;-64
2021/09/16 11:06:43;;;;;;;15.23;7.80;;;;;;;;;;4974559;28;20026;-62
2021/09/16 11:09:10;;;;;;;16.35;7.50;;;;;;;;;;4974660;28;20117;-64
2021/09/16 11:11:54;;;;;;;17.92;7.50;;;;;;;;;;4991956;28;20045;-63
2021/09/16 11:14:26;;;;;;;15.73;7.30;;;;;;;;;;4991934;28;20026;-64
2021/09/16 11:16:53;;;;;;;15.05;6.90;;;;;;;;;;4994715;28;20373;-63
2021/09/16 11:19:19;;;;;;;16.25;7.25;;;;;;;;;;5012163;28;20022;-63
2021/09/16 11:21:57;;;;;;;18.70;7.28;;;;;;;;;;5014252;28;20346;-65
2021/09/16 11:27:22;;;;;;;17.33;6.75;;;;;;;;;;5068062;28;20767;-62
2021/09/16 11:29:48;;;;;;;15.32;6.45;;;;;;;;;;5058176;28;20111;-62
2021/09/16 11:32:15;;;;;;;17.10;6.63;;;;;;;;;;5056918;28;20025;-62
2021/09/16 11:35:01;;;;;;;15.45;6.43;;;;;;;;;;5058215;28;20029;-62
2021/09/16 11:37:31;;;;;;;18.35;6.72;;;;;;;;;;5048783;28;20021;-62
2021/09/16 11:40:02;;;;;;;14.63;6.50;;;;;;;;;;5047241;28;20468;-62
2021/09/16 11:42:29;;;;;;;15.27;6.78;;;;;;;;;;5048835;28;20028;-62
2021/09/16 11:45:04;;;;;;;13.45;6.40;;;;;;;;;;5047425;28;20021;-62
2021/09/16 11:47:30;;;;;;;14.95;6.97;;;;;;;;;;5048628;28;20026;-61
2021/09/16 11:49:57;;;;;;;19.35;6.65;;;;;;;;;;5047050;28;20025;-61
2021/09/16 11:52:24;;;;;;;15.35;6.30;;;;;;;;;;5048494;28;20041;-63
2021/09/16 11:55:10;;;;;;;14.93;6.30;;;;;;;;;;5047294;28;20116;-61
2021/09/16 11:58:15;;;;;;;13.35;6.07;;;;;;;;;;5048518;28;20025;-63
2021/09/16 12:00:57;;;;;;;12.45;6.07;;;;;;;;;;5047262;28;20719;-65
2021/09/16 12:03:24;;;;;;;14.23;6.00;;;;;;;;;;5045935;28;20030;-61
2021/09/16 12:05:54;;;;;;;11.40;6.07;;;;;;;;;;5047006;28;20043;-62
2021/09/16 12:08:27;;;;;;;13.45;6.30;;;;;;;;;;5047945;28;20075;-59
2021/09/16 12:10:56;;;;;;;15.05;6.50;;;;;;;;;;5048266;28;20036;-61
2021/09/16 12:13:22;;;;;;;;;;;;;;;;;;5047187;28;20481;-61
2021/09/16 12:15:50;;;;;;;14.35;6.85;;;;;;;;;;5047150;28;19966;-62
2021/09/16 12:18:16;;;;;;;13.80;6.55;;;;;;;;;;5047938;28;20029;-63
2021/09/16 12:20:44;;;;;;;16.40;6.82;;;;;;;;;;5047548;28;20053;-63
2021/09/16 12:23:11;;;;;;;13.52;6.95;;;;;;;;;;5046856;28;20073;-61
2021/09/16 12:25:54;;;;;;;15.95;8.10;;;;;;;;;;5064129;28;20029;-62
2021/09/16 12:28:20;;;;;;;15.25;8.02;;;;;;;;;;5058587;28;20028;-63
2021/09/16 12:30:47;;;;;;;16.63;8.10;;;;;;;;;;5046307;28;20543;-63
2021/09/16 12:33:36;;;;;;;15.05;9.15;;;;;;;;;;5047713;28;20034;-62
2021/09/16 12:36:20;;;;;;;14.85;8.60;;;;;;;;;;5046804;28;20521;-61
2021/09/16 12:38:48;;;;;;;16.60;8.02;;;;;;;;;;5033485;28;20419;-62
2021/09/16 12:41:24;;;;;;;16.33;7.93;;;;;;;;;;5034576;28;20487;-61
2021/09/16 12:43:56;;;;;;;16.27;9.18;;;;;;;;;;5034334;28;20063;-62
2021/09/16 12:46:23;;;;;;;16.15;8.80;;;;;;;;;;5034085;28;20512;-61
2021/09/16 12:48:49;;;;;;;14.90;8.98;;;;;;;;;;5033534;28;20049;-62
2021/09/16 12:51:15;;;;;;;14.93;9.00;;;;;;;;;;5032439;28;20017;-62
2021/09/16 12:53:43;;;;;;;15.00;9.70;;;;;;;;;;5033731;28;20052;-62
2021/09/16 12:56:09;;;;;;;16.90;10.63;;;;;;;;;;5032583;28;20028;-62
2021/09/16 12:58:35;;;;;;;16.00;10.27;;;;;;;;;;5033513;28;20030;-61
2021/09/16 13:01:02;;;;;;;16.02;10.40;;;;;;;;;;5033812;28;20068;-62
2021/09/16 13:03:28;;;;;;;17.83;9.70;;;;;;;;;;5032505;28;20072;-62
2021/09/16 13:06:14;;;;;;;18.67;9.38;;;;;;;;;;5032263;28;20099;-60
2021/09/16 13:08:44;;;;;;;16.42;9.32;;;;;;;;;;5032806;28;20025;-60
2021/09/16 13:11:20;;;;;;;15.48;8.20;;;;;;;;;;5032513;28;20024;-60
2021/09/16 13:13:46;;;;;;;15.27;9.15;;;;;;;;;;5033596;28;20022;-61
2021/09/16 13:16:12;;;;;;;17.42;8.38;;;;;;;;;;5033534;28;20021;-60
2021/09/16 13:18:38;;;;;;;17.80;8.95;;;;;;;;;;5033488;28;20025;-61
2021/09/16 13:21:04;;;;;;;15.20;8.57;;;;;;;;;;5033379;28;20056;-60
2021/09/16 13:23:30;;;;;;;16.48;8.40;;;;;;;;;;5032498;28;20036;-62
2021/09/16 13:25:56;;;;;;;16.80;8.20;;;;;;;;;;5033126;28;20448;-60
2021/09/16 13:28:22;;;;;;;18.15;8.38;;;;;;;;;;5031787;28;20049;-63
2021/09/16 13:30:48;;;;;;;15.90;8.80;;;;;;;;;;5033338;28;20461;-58
2021/09/16 13:33:14;;;;;;;20.73;9.85;;;;;;;;;;5031312;28;20029;-59
2021/09/16 13:35:40;;;;;;;16.15;9.07;;;;;;;;;;5032272;28;20048;-63
2021/09/16 13:38:06;;;;;;;18.42;9.07;;;;;;;;;;5032849;28;20092;-57
2021/09/16 13:40:34;;;;;;;14.90;8.93;;;;;;;;;;5032961;28;20037;-60
2021/09/16 13:43:01;;;;;;;15.18;8.52;;;;;;;;;;5031519;28;20478;-62
2021/09/16 13:45:27;;;;;;;15.45;9.50;;;;;;;;;;5032648;28;20037;-60
2021/09/16 13:47:53;;;;;;;16.45;10.00;;;;;;;;;;5031744;28;20113;-62
2021/09/16 13:50:20;;;;;;;18.27;10.60;;;;;;;;;;5030309;28;20315;-63
2021/09/16 13:52:47;;;;;;;15.05;9.80;;;;;;;;;;5031847;28;20032;-61
2021/09/16 13:55:13;;;;;;;15.80;9.88;;;;;;;;;;5032810;28;20033;-56
2021/09/16 13:57:41;;;;;;;14.60;9.75;;;;;;;;;;5031449;28;20027;-62
2021/09/16 14:00:07;;;;;;;15.68;10.57;;;;;;;;;;5031203;28;20029;-62
2021/09/16 14:02:34;;;;;;;17.73;10.90;;;;;;;;;;5032743;28;20034;-61
2021/09/16 14:05:00;;;;;;;15.30;10.40;;;;;;;;;;5032817;28;20104;-62
2021/09/16 14:07:26;;;;;;;15.48;9.98;;;;;;;;;;5031615;28;20137;-62
2021/09/16 14:09:52;;;;;;;17.52;10.38;;;;;;;;;;5031513;28;20017;-61
2021/09/16 14:12:18;;;;;;;17.02;11.68;;;;;;;;;;5031116;28;20025;-61
2021/09/16 14:14:45;;;;;;;16.75;11.32;;;;;;;;;;5030752;28;20355;-61
2021/09/16 14:17:11;;;;;;;18.53;12.53;;;;;;;;;;5031130;28;20374;-60
2021/09/16 14:19:37;;;;;;;18.17;12.23;;;;;;;;;;5032423;28;20030;-61
2021/09/16 14:22:03;;;;;;;14.98;11.10;;;;;;;;;;5031827;28;20026;-60
2021/09/16 14:24:29;;;;;;;15.80;11.70;;;;;;;;;;5031685;28;20171;-62
2021/09/16 14:26:55;;;;;;;16.52;12.55;;;;;;;;;;5032543;28;20489;-56
2021/09/16 14:29:22;;;;;;;16.63;12.02;;;;;;;;;;5030471;28;20033;-63